sensor_id;sensor_type;location;lat;lon;timestamp;P1;P2;P0
31163;PMS5003;17796;49.296;-117.656;2024-02-04T00:14:59;10;8;
31163;PMS5003;17796;49.296;-117.656;2024-02-04T00:30:03;6;4;
31163;PMS5003;17796;49.296;-117.656;2024-02-04T00:45:07;10;8;
31163;PMS5003;17796;49.296;-117.656;2024-02-04T01:00:12;9;5;
31163;PMS5003;17796;49.296;-117.656;2024-02-04T01:15:16;8;8;
31163;PMS5003;17796;49.296;-117.656;2024-02-04T01:30:20;12;6;
31163;PMS5003;17796;49.296;-117.656;2024-02-04T01:45:24;8;8;
31163;PMS5003;17796;49.296;-117.656;2024-02-04T02:00:28;17;11;
31163;PMS5003;17796;49.296;-117.656;2024-02-04T02:15:36;8;6;
31163;PMS5003;17796;49.296;-117.656;2024-02-04T02:30:40;5;4;
31163;PMS5003;17796;49.296;-117.656;2024-02-04T02:45:44;6;5;
31163;PMS5003;17796;49.296;-117.656;2024-02-04T03:00:48;8;8;
31163;PMS5003;17796;49.296;-117.656;2024-02-04T03:15:52;13;9;
31163;PMS5003;17796;49.296;-117.656;2024-02-04T03:30:56;6;6;
31163;PMS5003;17796;49.296;-117.656;2024-02-04T03:46:00;6;6;
31163;PMS5003;17796;49.296;-117.656;2024-02-04T04:01:09;4;4;
31163;PMS5003;17796;49.296;-117.656;2024-02-04T04:16:13;5;3;
31163;PMS5003;17796;49.296;-117.656;2024-02-04T04:31:17;2;2;
31163;PMS5003;17796;49.296;-117.656;2024-02-04T04:46:21;6;2;
31163;PMS5003;17796;49.296;-117.656;2024-02-04T05:01:25;3;3;
31163;PMS5003;17796;49.296;-117.656;2024-02-04T05:16:29;2;2;
31163;PMS5003;17796;49.296;-117.656;2024-02-04T05:31:33;9;5;
31163;PMS5003;17796;49.296;-117.656;2024-02-04T05:46:38;5;5;
31163;PMS5003;17796;49.296;-117.656;2024-02-04T06:01:42;9;8;
31163;PMS5003;17796;49.296;-117.656;2024-02-04T06:16:47;4;4;
31163;PMS5003;17796;49.296;-117.656;2024-02-04T06:31:51;2;2;
31163;PMS5003;17796;49.296;-117.656;2024-02-04T06:46:55;3;3;
31163;PMS5003;17796;49.296;-117.656;2024-02-04T07:01:59;3;2;
31163;PMS5003;17796;49.296;-117.656;2024-02-04T07:17:03;1;1;
31163;PMS5003;17796;49.296;-117.656;2024-02-04T07:32:07;1;1;
31163;PMS5003;17796;49.296;-117.656;2024-02-04T07:47:11;3;3;
31163;PMS5003;17796;49.296;-117.656;2024-02-04T08:02:15;1;1;
31163;PMS5003;17796;49.296;-117.656;2024-02-04T08:17:20;2;2;
31163;PMS5003;17796;49.296;-117.656;2024-02-04T08:32:24;1;1;
31163;PMS5003;17796;49.296;-117.656;2024-02-04T08:47:28;3;3;
31163;PMS5003;17796;49.296;-117.656;2024-02-04T09:02:33;3;2;
31163;PMS5003;17796;49.296;-117.656;2024-02-04T09:17:37;1;1;
31163;PMS5003;17796;49.296;-117.656;2024-02-04T09:32:40;2;2;
31163;PMS5003;17796;49.296;-117.656;2024-02-04T09:47:46;1;1;
31163;PMS5003;17796;49.296;-117.656;2024-02-04T10:02:52;3;3;
31163;PMS5003;17796;49.296;-117.656;2024-02-04T10:17:57;1;1;
31163;PMS5003;17796;49.296;-117.656;2024-02-04T10:33:01;2;2;
31163;PMS5003;17796;49.296;-117.656;2024-02-04T10:48:06;2;2;
31163;PMS5003;17796;49.296;-117.656;2024-02-04T11:03:12;5;4;
31163;PMS5003;17796;49.296;-117.656;2024-02-04T11:19:34;3;3;
31163;PMS5003;17796;49.296;-117.656;2024-02-04T11:34:43;9;5;
31163;PMS5003;17796;49.296;-117.656;2024-02-04T11:49:55;5;5;
31163;PMS5003;17796;49.296;-117.656;2024-02-04T12:05:00;10;9;
31163;PMS5003;17796;49.296;-117.656;2024-02-04T12:20:05;8;5;
31163;PMS5003;17796;49.296;-117.656;2024-02-04T12:35:13;9;6;
31163;PMS5003;17796;49.296;-117.656;2024-02-04T12:50:17;6;6;
31163;PMS5003;17796;49.296;-117.656;2024-02-04T13:05:25;11;8;
31163;PMS5003;17796;49.296;-117.656;2024-02-04T13:20:28;10;6;
31163;PMS5003;17796;49.296;-117.656;2024-02-04T13:35:33;10;5;
31163;PMS5003;17796;49.296;-117.656;2024-02-04T13:50:39;12;10;
31163;PMS5003;17796;49.296;-117.656;2024-02-04T14:05:46;6;6;
31163;PMS5003;17796;49.296;-117.656;2024-02-04T14:21:08;8;8;
31163;PMS5003;17796;49.296;-117.656;2024-02-04T14:36:13;8;8;
31163;PMS5003;17796;49.296;-117.656;2024-02-04T14:51:19;17;13;
31163;PMS5003;17796;49.296;-117.656;2024-02-04T15:06:23;11;11;
31163;PMS5003;17796;49.296;-117.656;2024-02-04T15:21:28;9;9;
31163;PMS5003;17796;49.296;-117.656;2024-02-04T15:36:32;7;7;
31163;PMS5003;17796;49.296;-117.656;2024-02-04T15:51:38;27;18;
31163;PMS5003;17796;49.296;-117.656;2024-02-04T16:06:44;8;8;
31163;PMS5003;17796;49.296;-117.656;2024-02-04T16:22:01;12;11;
31163;PMS5003;17796;49.296;-117.656;2024-02-04T16:37:05;13;9;
31163;PMS5003;17796;49.296;-117.656;2024-02-04T16:52:12;12;9;
31163;PMS5003;17796;49.296;-117.656;2024-02-04T17:07:18;19;19;
31163;PMS5003;17796;49.296;-117.656;2024-02-04T17:22:23;23;23;
31163;PMS5003;17796;49.296;-117.656;2024-02-04T17:37:30;21;17;
31163;PMS5003;17796;49.296;-117.656;2024-02-04T17:52:35;12;10;
31163;PMS5003;17796;49.296;-117.656;2024-02-04T18:07:40;8;7;
31163;PMS5003;17796;49.296;-117.656;2024-02-04T18:22:46;9;9;
31163;PMS5003;17796;49.296;-117.656;2024-02-04T18:38:06;16;11;
31163;PMS5003;17796;49.296;-117.656;2024-02-04T18:53:12;8;7;
31163;PMS5003;17796;49.296;-117.656;2024-02-04T19:08:18;20;12;
31163;PMS5003;17796;49.296;-117.656;2024-02-04T19:23:25;8;8;
31163;PMS5003;17796;49.296;-117.656;2024-02-04T19:38:29;8;8;
31163;PMS5003;17796;49.296;-117.656;2024-02-04T19:53:34;12;11;
31163;PMS5003;17796;49.296;-117.656;2024-02-04T20:08:38;18;11;
31163;PMS5003;17796;49.296;-117.656;2024-02-04T20:23:42;13;12;
31163;PMS5003;17796;49.296;-117.656;2024-02-04T20:38:46;23;19;
31163;PMS5003;17796;49.296;-117.656;2024-02-04T20:53:51;11;10;
31163;PMS5003;17796;49.296;-117.656;2024-02-04T21:08:55;9;9;
31163;PMS5003;17796;49.296;-117.656;2024-02-04T21:23:59;9;8;
31163;PMS5003;17796;49.296;-117.656;2024-02-04T21:39:03;9;9;
31163;PMS5003;17796;49.296;-117.656;2024-02-04T21:54:07;12;7;
31163;PMS5003;17796;49.296;-117.656;2024-02-04T22:09:11;9;8;
31163;PMS5003;17796;49.296;-117.656;2024-02-04T22:24:14;8;7;
31163;PMS5003;17796;49.296;-117.656;2024-02-04T22:39:18;17;13;
31163;PMS5003;17796;49.296;-117.656;2024-02-04T22:54:21;9;6;
31163;PMS5003;17796;49.296;-117.656;2024-02-04T23:09:25;7;7;
31163;PMS5003;17796;49.296;-117.656;2024-02-04T23:24:29;15;10;
31163;PMS5003;17796;49.296;-117.656;2024-02-04T23:39:33;11;8;
31163;PMS5003;17796;49.296;-117.656;2024-02-04T23:54:37;15;9;
